PWSweather.com
Personal Weather Stations
Station Observations
MAHIABEACH
Mahia Beach, Mahia Peninsula Hawkes Bay -NZ 4108

Mahia BeachMahia Peninsula Hawkes Bay -NZ 4108

Lat: -39.08872, Lon: 177.878209

Elevation: 72

Station Type: WS2083

http://wairoa.net/mahia/index.htm

Latest ConditionsUpdated 7:30:05 AM GMT+12:12 Wednesday, May 25, 2016
Currently Today's Max Today's Min Today's Average
Temperature 55.2°F12.9°C 59.7°F15.4°C 52.0°F11.1°C 56.2°F13.4°C
Dew Point 44.9°F7.2°C 52.3°F11.3°C 43.5°F6.4°C 47.8°F8.8°C
Winds 1.8 mph NW2.9 kmh NW 7.2 mph SE11.6 kmh SE - 2.5 mph 4.0 kmh
Wind Gusts 4.5 mph7.2 kmh 15.2 mph24.5 kmh - -
Humidity 68% 86% 55% 74%
Pressure 29.43 in996.6 mb 29.43 in996.6 mb 29.37 in994.6 mb -
Hour Temp Dew Point Humidity Winds Wind Gusts Pressure Precip Precip Rate Daily Precip Total
07:30 AM 55.2°F12.9°C 44.9°F7.2°C 68% 1.8 mph NW2.9 kmh NW 4.5 mph7.2 kmh 29.43 in996.6 mb 0.00 in0.0 mm 0.00 in0.0 mm 0.00 in0.0 mm
07:15 AM 56.3°F13.5°C 45.5°F7.5°C 67% 1.6 mph NE2.6 kmh NE 5.4 mph8.7 kmh 29.41 in995.9 mb 0.00 in0.0 mm 0.00 in0.0 mm 0.00 in0.0 mm
07:00 AM 56.7°F13.7°C 45.0°F7.2°C 65% 2.2 mph N3.5 kmh N 4.5 mph7.2 kmh 29.41 in995.9 mb 0.00 in0.0 mm 0.00 in0.0 mm 0.00 in0.0 mm
06:45 AM 55.9°F13.3°C 45.2°F7.3°C 67% 2.0 mph NNE3.2 kmh NNE 4.5 mph7.2 kmh 29.41 in995.9 mb 0.00 in0.0 mm 0.00 in0.0 mm 0.00 in0.0 mm
06:30 AM 55.4°F13.0°C 45.8°F7.7°C 70% 2.5 mph N4.0 kmh N 6.0 mph9.7 kmh 29.40 in995.6 mb 0.00 in0.0 mm 0.00 in0.0 mm 0.00 in0.0 mm
06:15 AM 55.8°F13.2°C 45.0°F7.2°C 67% 2.3 mph NW3.7 kmh NW 4.5 mph7.2 kmh 29.40 in995.6 mb 0.00 in0.0 mm 0.00 in0.0 mm 0.00 in0.0 mm
06:00 AM 56.8°F13.8°C 44.4°F6.9°C 63% 2.8 mph N4.5 kmh N 5.4 mph8.7 kmh 29.39 in995.3 mb 0.00 in0.0 mm 0.00 in0.0 mm 0.00 in0.0 mm
05:45 AM 59.2°F15.1°C 44.0°F6.7°C 57% 1.8 mph S2.9 kmh S 8.3 mph13.4 kmh 29.39 in995.3 mb 0.00 in0.0 mm 0.00 in0.0 mm 0.00 in0.0 mm
05:30 AM 59.7°F15.4°C 43.5°F6.4°C 55% 5.2 mph SSE8.4 kmh SSE 13.0 mph20.9 kmh 29.39 in995.3 mb 0.00 in0.0 mm 0.00 in0.0 mm 0.00 in0.0 mm
05:15 AM 59.7°F15.4°C 45.8°F7.7°C 60% 7.2 mph SE11.6 kmh SE 15.2 mph24.5 kmh 29.40 in995.6 mb 0.00 in0.0 mm 0.00 in0.0 mm 0.00 in0.0 mm
05:00 AM 54.9°F12.7°C 47.8°F8.8°C 77% 1.8 mph NE2.9 kmh NE 6.9 mph11.1 kmh 29.40 in995.6 mb 0.00 in0.0 mm 0.00 in0.0 mm 0.00 in0.0 mm
04:45 AM 52.0°F11.1°C 46.7°F8.2°C 82% 1.5 mph N2.4 kmh N 4.5 mph7.2 kmh 29.41 in995.9 mb 0.00 in0.0 mm 0.00 in0.0 mm 0.00 in0.0 mm
04:30 AM 52.2°F11.2°C 47.2°F8.4°C 83% 1.4 mph N2.3 kmh N 4.5 mph7.2 kmh 29.40 in995.6 mb 0.00 in0.0 mm 0.00 in0.0 mm 0.00 in0.0 mm
04:15 AM 53.1°F11.7°C 47.1°F8.4°C 80% 1.2 mph NE1.9 kmh NE 3.8 mph6.1 kmh 29.39 in995.3 mb 0.00 in0.0 mm 0.00 in0.0 mm 0.00 in0.0 mm
04:00 AM 54.0°F12.2°C 44.8°F7.1°C 71% 0.9 mph N1.4 kmh N 3.8 mph6.1 kmh 29.39 in995.3 mb 0.00 in0.0 mm 0.00 in0.0 mm 0.00 in0.0 mm
03:45 AM 56.7°F13.7°C 45.4°F7.4°C 66% 2.1 mph N3.4 kmh N 3.8 mph6.1 kmh 29.39 in995.3 mb 0.00 in0.0 mm 0.00 in0.0 mm 0.00 in0.0 mm
03:30 AM 55.8°F13.2°C 46.1°F7.8°C 70% 1.6 mph N2.6 kmh N 4.5 mph7.2 kmh 29.38 in994.9 mb 0.00 in0.0 mm 0.00 in0.0 mm 0.00 in0.0 mm
03:15 AM 56.1°F13.4°C 46.1°F7.8°C 69% 1.5 mph N2.4 kmh N 4.5 mph7.2 kmh 29.38 in994.9 mb 0.00 in0.0 mm 0.00 in0.0 mm 0.00 in0.0 mm
03:00 AM 56.3°F13.5°C 47.4°F8.6°C 72% 1.5 mph N2.4 kmh N 3.8 mph6.1 kmh 29.39 in995.3 mb 0.00 in0.0 mm 0.00 in0.0 mm 0.00 in0.0 mm
02:45 AM 57.0°F13.9°C 48.5°F9.2°C 73% 2.6 mph WNW4.2 kmh WNW 6.9 mph11.1 kmh 29.38 in994.9 mb 0.00 in0.0 mm 0.00 in0.0 mm 0.00 in0.0 mm
02:30 AM 54.7°F12.6°C 49.0°F9.4°C 81% 2.3 mph NNW3.7 kmh NNW 5.4 mph8.7 kmh 29.38 in994.9 mb 0.00 in0.0 mm 0.00 in0.0 mm 0.00 in0.0 mm
02:15 AM 55.0°F12.8°C 49.3°F9.6°C 81% 1.8 mph NNW2.9 kmh NNW 3.8 mph6.1 kmh 29.39 in995.3 mb 0.00 in0.0 mm 0.00 in0.0 mm 0.00 in0.0 mm
02:00 AM 56.5°F13.6°C 51.4°F10.8°C 83% 2.0 mph N3.2 kmh N 5.4 mph8.7 kmh 29.40 in995.6 mb 0.00 in0.0 mm 0.00 in0.0 mm 0.00 in0.0 mm
01:45 AM 56.3°F13.5°C 52.2°F11.2°C 86% 3.2 mph NNW5.1 kmh NNW 6.9 mph11.1 kmh 29.38 in994.9 mb 0.00 in0.0 mm 0.00 in0.0 mm 0.00 in0.0 mm
01:30 AM 56.1°F13.4°C 52.0°F11.1°C 86% 3.3 mph NW5.3 kmh NW 7.6 mph12.2 kmh 29.38 in994.9 mb 0.00 in0.0 mm 0.00 in0.0 mm 0.00 in0.0 mm
01:15 AM 56.5°F13.6°C 51.4°F10.8°C 83% 2.0 mph S3.2 kmh S 6.0 mph9.7 kmh 29.38 in994.9 mb 0.00 in0.0 mm 0.00 in0.0 mm 0.00 in0.0 mm
01:00 AM 57.6°F14.2°C 52.1°F11.2°C 82% 2.5 mph NW4.0 kmh NW 10.7 mph17.2 kmh 29.37 in994.6 mb 0.00 in0.0 mm 0.00 in0.0 mm 0.00 in0.0 mm
12:45 AM 57.6°F14.2°C 52.1°F11.2°C 82% 3.2 mph NW5.1 kmh NW 8.3 mph13.4 kmh 29.38 in994.9 mb 0.00 in0.0 mm 0.00 in0.0 mm 0.00 in0.0 mm
12:30 AM 57.7°F14.3°C 51.6°F10.9°C 80% 3.7 mph NW6.0 kmh NW 8.3 mph13.4 kmh 29.38 in994.9 mb 0.00 in0.0 mm 0.00 in0.0 mm 0.00 in0.0 mm
12:15 AM 57.6°F14.2°C 51.8°F11.0°C 81% 3.2 mph NW5.1 kmh NW 6.9 mph11.1 kmh 29.39 in995.3 mb 0.00 in0.0 mm 0.00 in0.0 mm 0.00 in0.0 mm
12:00 AM 57.7°F14.3°C 52.3°F11.3°C 82% 3.9 mph WNW6.3 kmh WNW 10.7 mph17.2 kmh 29.39 in995.3 mb 0.00 in0.0 mm 0.00 in0.0 mm 0.00 in0.0 mm